createdAt,value
2022-08-01T00:00:18.078Z,86.28
2022-08-01T00:02:44.700Z,86.52
2022-08-01T00:05:11.792Z,87.17
2022-08-01T00:07:38.962Z,86.31
2022-08-01T00:10:08.035Z,85.71
2022-08-01T00:12:34.510Z,86.68
2022-08-01T00:15:01.192Z,86.05
2022-08-01T00:17:27.689Z,86.46
2022-08-01T00:19:54.195Z,87.25
2022-08-01T00:22:20.755Z,87.09
2022-08-01T00:24:47.329Z,86.46
2022-08-01T00:27:13.801Z,86.41
2022-08-01T00:30:10.212Z,86.41
2022-08-01T00:32:26.768Z,86.19
2022-08-01T00:34:53.249Z,86.37
2022-08-01T00:37:19.705Z,87.12
2022-08-01T00:39:46.222Z,86.82
2022-08-01T00:42:14.055Z,87.35
2022-08-01T00:44:40.884Z,88.40
2022-08-01T00:47:07.810Z,87.43
2022-08-01T00:49:34.717Z,88.56
2022-08-01T00:52:01.374Z,88.21
2022-08-01T00:54:28.783Z,89.07
2022-08-01T00:56:55.718Z,88.73
2022-08-01T00:59:23.299Z,87.95
2022-08-01T01:01:50.303Z,88.19
2022-08-01T01:04:18.135Z,88.33
2022-08-01T01:07:08.196Z,88.27
2022-08-01T01:10:06.794Z,88.58
2022-08-01T01:12:41.666Z,89.68
2022-08-01T01:15:24.443Z,89.93
2022-08-01T01:17:58.889Z,89.84
2022-08-01T01:20:29.815Z,89.33
2022-08-01T01:23:35.821Z,88.72
2022-08-01T01:26:12.131Z,89.22
2022-08-01T01:28:49.344Z,89.58
2022-08-01T01:31:17.618Z,89.41
2022-08-01T01:33:45.294Z,89.77
2022-08-01T01:36:15.608Z,89.31
2022-08-01T01:38:45.154Z,89.12
2022-08-01T01:41:12.863Z,89.18
2022-08-01T01:43:40.098Z,88.57
2022-08-01T01:46:08.556Z,88.04
2022-08-01T01:48:35.546Z,88.25
2022-08-01T01:51:02.340Z,88.02
2022-08-01T01:53:30.724Z,88.34
2022-08-01T01:55:58.925Z,87.98
2022-08-01T01:58:25.902Z,89.57
2022-08-01T02:00:53.433Z,89.33
2022-08-01T02:03:20.802Z,88.92
2022-08-01T02:05:47.721Z,89.17
2022-08-01T02:08:16.746Z,89.78
2022-08-01T02:11:03.738Z,89.27
2022-08-01T02:13:32.617Z,89.56
2022-08-01T02:16:00.823Z,89.05
2022-08-01T02:18:27.593Z,89.03
2022-08-01T02:20:55.875Z,88.81
2022-08-01T02:23:24.648Z,89.52
2022-08-01T02:26:09.501Z,90.04
2022-08-01T02:28:44.719Z,89.58
2022-08-01T02:31:17.053Z,89.28
2022-08-01T02:33:46.337Z,88.90
2022-08-01T02:36:29.145Z,89.89
2022-08-01T02:38:59.453Z,90.10
2022-08-01T02:41:28.011Z,90.40
2022-08-01T02:43:58.941Z,91.13
2022-08-01T02:46:31.119Z,90.94
2022-08-01T02:49:00.679Z,90.26
2022-08-01T02:51:27.797Z,90.08
2022-08-01T02:53:55.381Z,89.98
2022-08-01T02:56:22.942Z,90.33
2022-08-01T02:58:50.368Z,90.54
2022-08-01T03:01:18.428Z,90.80
2022-08-01T03:03:46.495Z,90.65
2022-08-01T03:06:13.620Z,90.75
2022-08-01T03:08:40.691Z,90.66
2022-08-01T03:11:08.124Z,91.42
2022-08-01T03:13:35.086Z,91.04
2022-08-01T03:16:02.614Z,90.35
2022-08-01T03:18:30.111Z,91.16
2022-08-01T03:20:57.442Z,90.78
2022-08-01T03:23:37.573Z,90.05
2022-08-01T03:26:06.161Z,90.20
2022-08-01T03:28:32.999Z,90.09
2022-08-01T03:31:00.687Z,90.39
2022-08-01T03:33:27.621Z,90.77
2022-08-01T03:35:55.733Z,91.63
2022-08-01T03:38:27.444Z,91.00
2022-08-01T03:41:00.625Z,90.98
2022-08-01T03:43:36.514Z,90.96
2022-08-01T03:46:08.631Z,90.69
2022-08-01T03:48:44.201Z,90.88
2022-08-01T03:51:10.985Z,90.61
2022-08-01T03:53:39.597Z,90.44
2022-08-01T03:56:09.609Z,90.28
2022-08-01T03:58:38.075Z,90.63
2022-08-01T04:01:05.331Z,90.46
2022-08-01T04:03:32.210Z,90.41
2022-08-01T04:06:09.557Z,90.06
2022-08-01T04:08:39.113Z,90.25
2022-08-01T04:11:05.752Z,89.74
2022-08-01T04:13:37.189Z,89.69
2022-08-01T04:16:04.355Z,89.57
2022-08-01T04:18:30.915Z,89.57
2022-08-01T04:20:57.407Z,88.94
2022-08-01T04:23:26.423Z,88.82
2022-08-01T04:25:53.556Z,88.79
2022-08-01T04:28:20.738Z,88.65
2022-08-01T04:30:50.005Z,88.87
2022-08-01T04:33:18.962Z,88.46
2022-08-01T04:36:02.740Z,87.53
2022-08-01T04:38:41.025Z,86.81
2022-08-01T04:41:10.516Z,86.27
2022-08-01T04:43:37.936Z,85.45
2022-08-01T04:46:05.063Z,85.31
2022-08-01T04:48:33.154Z,84.43
2022-08-01T04:51:00.115Z,84.63
2022-08-01T04:53:27.655Z,84.71
2022-08-01T04:55:54.540Z,84.80
2022-08-01T04:58:21.041Z,84.67
2022-08-01T05:00:48.029Z,84.19
2022-08-01T05:03:14.744Z,83.55
2022-08-01T05:05:41.580Z,83.62
2022-08-01T05:08:08.039Z,83.40
2022-08-01T05:10:35.276Z,83.52
2022-08-01T05:13:03.015Z,83.12
2022-08-01T05:15:29.614Z,83.12
2022-08-01T05:17:57.233Z,83.90
2022-08-01T05:20:23.738Z,83.33
2022-08-01T05:22:50.242Z,83.13
2022-08-01T05:25:19.926Z,83.64
2022-08-01T05:27:47.050Z,83.33
2022-08-01T05:30:17.221Z,82.94
2022-08-01T05:32:43.741Z,82.44
2022-08-01T05:35:12.549Z,82.84
2022-08-01T05:37:39.110Z,82.53
2022-08-01T05:40:06.598Z,82.12
2022-08-01T05:42:33.238Z,81.74
2022-08-01T05:44:59.952Z,80.96
2022-08-01T05:47:26.433Z,80.21
2022-08-01T05:49:53.016Z,80.53
2022-08-01T05:52:19.787Z,80.87
2022-08-01T05:54:47.285Z,81.27
2022-08-01T05:57:13.851Z,81.52
2022-08-01T05:59:41.833Z,80.49
2022-08-01T06:02:08.849Z,80.76
2022-08-01T06:04:35.807Z,81.18
2022-08-01T06:07:02.373Z,81.30
2022-08-01T06:09:28.935Z,80.52
2022-08-01T06:11:55.412Z,80.34
2022-08-01T06:14:21.921Z,79.00
2022-08-01T06:16:48.386Z,78.51
2022-08-01T06:19:14.843Z,75.90
2022-08-01T06:21:41.382Z,75.22
2022-08-01T06:24:07.925Z,72.95
2022-08-01T06:26:34.413Z,71.00
2022-08-01T06:29:00.970Z,69.96
2022-08-01T06:31:31.747Z,69.11
2022-08-01T06:34:00.001Z,68.53
2022-08-01T06:36:26.654Z,67.15
2022-08-01T06:38:53.131Z,66.37
2022-08-01T06:41:19.672Z,66.03
2022-08-01T06:43:46.199Z,66.41
2022-08-01T06:46:12.765Z,65.77
2022-08-01T06:48:40.326Z,65.19
2022-08-01T06:51:09.832Z,64.27
2022-08-01T06:53:37.696Z,64.01
2022-08-01T06:56:05.209Z,63.48
2022-08-01T06:58:32.161Z,63.33
2022-08-01T07:00:58.929Z,62.97
2022-08-01T07:03:26.419Z,62.66
2022-08-01T07:05:54.461Z,62.19
2022-08-01T07:08:21.939Z,59.73
2022-08-01T07:10:48.497Z,57.97
2022-08-01T07:13:17.394Z,57.58
2022-08-01T07:15:44.690Z,55.71
2022-08-01T07:18:11.184Z,54.30
2022-08-01T07:20:50.229Z,55.60
2022-08-01T07:23:18.627Z,56.24
2022-08-01T07:25:52.427Z,55.79
2022-08-01T07:28:19.654Z,54.91
2022-08-01T07:30:46.290Z,54.93
2022-08-01T07:33:12.879Z,56.73
2022-08-01T07:35:40.390Z,56.83
2022-08-01T07:38:12.341Z,55.64
2022-08-01T07:40:39.243Z,56.45
2022-08-01T07:43:06.130Z,55.06
2022-08-01T07:45:32.618Z,52.99
2022-08-01T07:48:08.978Z,53.04
2022-08-01T07:50:35.834Z,54.61
2022-08-01T07:53:03.467Z,55.02
2022-08-01T07:55:30.049Z,53.99
2022-08-01T07:57:56.535Z,53.87
2022-08-01T08:00:23.006Z,52.51
2022-08-01T08:02:49.622Z,54.48
2022-08-01T08:05:16.256Z,54.31
2022-08-01T08:08:06.294Z,50.27
2022-08-01T08:10:33.670Z,51.85
2022-08-01T08:13:00.270Z,50.20
2022-08-01T08:15:26.794Z,48.08
2022-08-01T08:17:55.292Z,48.62
2022-08-01T08:20:28.037Z,48.58
2022-08-01T08:22:56.262Z,45.63
2022-08-01T08:25:26.804Z,45.75
2022-08-01T08:27:53.772Z,46.60
2022-08-01T08:30:20.801Z,47.14
2022-08-01T08:32:48.884Z,46.50
2022-08-01T08:35:22.952Z,45.43
2022-08-01T08:37:49.669Z,46.66
2022-08-01T08:40:17.003Z,45.03
2022-08-01T08:42:43.905Z,44.87
2022-08-01T08:45:12.112Z,45.20
2022-08-01T08:47:39.210Z,45.16
2022-08-01T08:50:07.005Z,45.34
2022-08-01T08:52:36.384Z,43.18
2022-08-01T08:55:03.218Z,42.46
2022-08-01T08:57:29.970Z,41.39
2022-08-01T08:59:57.960Z,40.18
2022-08-01T09:02:24.663Z,40.71
2022-08-01T09:04:51.390Z,41.17
2022-08-01T09:07:17.892Z,42.00
2022-08-01T09:09:44.441Z,40.90
2022-08-01T09:12:11.744Z,40.78
2022-08-01T09:14:46.484Z,40.49
2022-08-01T09:17:13.726Z,40.67
2022-08-01T09:19:45.279Z,41.46
2022-08-01T09:22:22.067Z,40.04
2022-08-01T09:25:06.198Z,37.97
2022-08-01T09:27:33.718Z,41.71
2022-08-01T09:30:13.326Z,43.13
2022-08-01T09:33:06.260Z,44.96
2022-08-01T09:35:42.986Z,43.75
2022-08-01T09:38:28.084Z,44.37
2022-08-01T09:41:00.091Z,44.94
2022-08-01T09:43:29.865Z,46.31
2022-08-01T09:45:58.902Z,42.62
2022-08-01T09:48:28.384Z,43.75
2022-08-01T09:51:04.640Z,44.90
2022-08-01T09:53:51.216Z,45.54
2022-08-01T09:56:20.339Z,45.75
2022-08-01T09:59:02.015Z,44.17
2022-08-01T10:01:37.143Z,46.43
2022-08-01T10:04:16.087Z,45.91
2022-08-01T10:06:59.970Z,46.37
2022-08-01T10:09:35.846Z,45.46
2022-08-01T10:12:08.799Z,44.89
2022-08-01T10:14:37.412Z,45.17
2022-08-01T10:17:05.867Z,45.04
2022-08-01T10:19:33.694Z,47.15
2022-08-01T10:22:00.940Z,46.81
2022-08-01T10:24:30.071Z,46.67
2022-08-01T10:27:06.129Z,44.24
2022-08-01T10:30:05.288Z,46.47
2022-08-01T10:32:36.322Z,46.45
2022-08-01T10:35:06.835Z,47.21
2022-08-01T10:37:51.430Z,47.84
2022-08-01T10:40:35.393Z,46.09
2022-08-01T10:43:04.024Z,48.41
2022-08-01T10:45:30.878Z,48.89
2022-08-01T10:48:05.391Z,48.65
2022-08-01T10:50:40.522Z,47.21
2022-08-01T10:53:24.113Z,48.94
2022-08-01T10:55:59.274Z,47.80
2022-08-01T10:58:39.474Z,47.12
2022-08-01T11:01:15.952Z,45.78
2022-08-01T11:03:56.899Z,45.22
2022-08-01T11:06:26.878Z,45.70
2022-08-01T11:08:55.049Z,44.03
2022-08-01T11:11:22.559Z,41.82
2022-08-01T11:14:12.923Z,42.02
2022-08-01T11:16:41.460Z,41.78
2022-08-01T11:19:09.495Z,42.99
2022-08-01T11:21:58.540Z,42.70
2022-08-01T11:24:45.039Z,42.86
2022-08-01T11:27:33.748Z,43.68
2022-08-01T11:30:09.476Z,43.31
2022-08-01T11:33:10.608Z,45.24
2022-08-01T11:35:38.495Z,46.39
2022-08-01T11:38:25.401Z,45.77
2022-08-01T11:41:10.627Z,44.69
2022-08-01T11:44:05.707Z,44.00
2022-08-01T11:47:09.285Z,42.86
2022-08-01T11:49:55.795Z,42.84
2022-08-01T11:52:37.227Z,42.58
2022-08-01T11:55:10.088Z,41.86
2022-08-01T11:57:38.917Z,42.21
2022-08-01T12:00:17.827Z,41.44
2022-08-01T12:02:46.660Z,41.51
2022-08-01T12:05:15.741Z,40.51
2022-08-01T12:07:43.888Z,39.96
2022-08-01T12:10:16.486Z,40.76
2022-08-01T12:12:54.143Z,40.55
2022-08-01T12:15:23.645Z,41.42
2022-08-01T12:18:00.374Z,42.46
2022-08-01T12:20:38.231Z,43.05
2022-08-01T12:23:09.116Z,42.22
2022-08-01T12:25:36.838Z,44.02
2022-08-01T12:28:06.014Z,43.73
2022-08-01T12:30:36.456Z,43.50
2022-08-01T12:33:04.966Z,44.03
2022-08-01T12:35:31.893Z,44.19
2022-08-01T12:38:05.801Z,43.78
2022-08-01T12:40:34.364Z,42.94
2022-08-01T12:43:03.349Z,42.48
2022-08-01T12:45:35.554Z,43.51
2022-08-01T12:48:02.510Z,43.70
2022-08-01T12:50:30.952Z,41.84
2022-08-01T12:52:58.363Z,41.97
2022-08-01T12:55:33.851Z,42.21
2022-08-01T12:58:16.060Z,41.86
2022-08-01T13:00:45.292Z,41.96
2022-08-01T13:03:17.145Z,42.22
2022-08-01T13:05:51.546Z,43.00
2022-08-01T13:08:38.914Z,42.71
2022-08-01T13:11:06.785Z,43.20
2022-08-01T13:14:01.923Z,42.79
2022-08-01T13:16:49.165Z,43.81
2022-08-01T13:19:15.288Z,43.22
2022-08-01T13:21:57.055Z,43.50
2022-08-01T13:24:29.057Z,43.56
2022-08-01T13:27:01.193Z,43.62
2022-08-01T13:29:38.894Z,44.06
2022-08-01T13:32:29.173Z,44.00
2022-08-01T13:35:10.054Z,44.03
2022-08-01T13:37:41.024Z,44.79
2022-08-01T13:40:09.215Z,45.26
2022-08-01T13:42:37.239Z,45.33
2022-08-01T13:45:14.534Z,46.11
2022-08-01T13:48:11.749Z,46.59
2022-08-01T13:50:31.625Z,46.77
2022-08-01T13:52:58.233Z,46.98
2022-08-01T13:55:24.734Z,47.04
2022-08-01T13:57:51.209Z,47.94
2022-08-01T14:00:18.104Z,48.86
2022-08-01T14:02:44.609Z,49.06
2022-08-01T14:05:12.178Z,49.56
2022-08-01T14:07:38.725Z,49.30
2022-08-01T14:10:19.544Z,50.01
2022-08-01T14:12:48.933Z,49.96
2022-08-01T14:15:36.484Z,48.79
2022-08-01T14:18:02.170Z,49.42
2022-08-01T14:20:29.126Z,49.55
2022-08-01T14:22:55.633Z,49.23
2022-08-01T14:26:00.700Z,49.28
2022-08-01T14:28:09.247Z,49.32
2022-08-01T14:30:35.801Z,50.25
2022-08-01T14:33:02.360Z,51.11
2022-08-01T14:35:28.844Z,52.25
2022-08-01T14:38:21.913Z,52.21
2022-08-01T14:40:58.587Z,52.67
2022-08-01T14:43:30.722Z,53.43
2022-08-01T14:45:59.952Z,53.19
2022-08-01T14:48:26.628Z,51.41
2022-08-01T14:50:53.181Z,51.62
2022-08-01T14:53:19.812Z,52.05
2022-08-01T14:55:46.321Z,52.02
2022-08-01T14:58:14.012Z,50.96
2022-08-01T15:00:40.588Z,50.04
2022-08-01T15:03:07.231Z,50.31
2022-08-01T15:05:34.075Z,50.20
2022-08-01T15:08:00.587Z,49.37
2022-08-01T15:10:27.911Z,48.92
2022-08-01T15:12:56.573Z,48.40
2022-08-01T15:15:23.522Z,51.79
2022-08-01T15:17:50.058Z,50.31
2022-08-01T15:20:16.773Z,49.85
2022-08-01T15:22:43.372Z,48.87
2022-08-01T15:25:09.960Z,52.38
2022-08-01T15:27:36.722Z,49.85
2022-08-01T15:30:04.445Z,50.04
2022-08-01T15:32:31.055Z,48.95
2022-08-01T15:34:57.566Z,49.30
2022-08-01T15:37:24.117Z,49.43
2022-08-01T15:39:56.496Z,49.20
2022-08-01T15:42:25.678Z,48.67
2022-08-01T15:44:54.141Z,47.93
2022-08-01T15:47:20.658Z,54.45
2022-08-01T15:49:52.477Z,51.51
2022-08-01T15:52:21.295Z,52.48
2022-08-01T15:54:49.893Z,51.46
2022-08-01T15:57:16.595Z,49.37
2022-08-01T15:59:43.151Z,48.46
2022-08-01T16:02:11.473Z,49.42
2022-08-01T16:04:39.001Z,50.05
2022-08-01T16:07:06.378Z,51.37
2022-08-01T16:09:35.193Z,51.82
2022-08-01T16:12:01.720Z,52.74
2022-08-01T16:14:31.762Z,52.49
2022-08-01T16:17:01.060Z,53.09
2022-08-01T16:19:27.968Z,53.66
2022-08-01T16:21:54.558Z,52.90
2022-08-01T16:24:21.347Z,52.91
2022-08-01T16:26:47.826Z,53.92
2022-08-01T16:29:14.346Z,53.03
2022-08-01T16:31:42.475Z,54.21
2022-08-01T16:34:27.431Z,55.29
2022-08-01T16:36:55.678Z,54.96
2022-08-01T16:39:23.582Z,54.01
2022-08-01T16:41:55.608Z,55.41
2022-08-01T16:44:33.875Z,55.84
2022-08-01T16:47:10.094Z,55.26
2022-08-01T16:49:37.057Z,56.08
2022-08-01T16:52:04.204Z,56.28
2022-08-01T16:54:30.971Z,56.65
2022-08-01T16:57:08.843Z,56.28
2022-08-01T16:59:41.360Z,56.22
2022-08-01T17:02:09.228Z,56.75
2022-08-01T17:04:36.076Z,56.64
2022-08-01T17:07:02.593Z,56.34
2022-08-01T17:09:29.133Z,57.70
2022-08-01T17:11:55.650Z,55.77
2022-08-01T17:14:22.222Z,55.99
2022-08-01T17:16:48.717Z,56.68
2022-08-01T17:19:15.350Z,56.71
2022-08-01T17:21:42.639Z,56.57
2022-08-01T17:24:09.463Z,56.93
2022-08-01T17:26:37.379Z,56.65
2022-08-01T17:29:04.026Z,56.89
2022-08-01T17:31:30.506Z,56.50
2022-08-01T17:33:56.963Z,57.42
2022-08-01T17:36:23.764Z,56.57
2022-08-01T17:38:50.334Z,56.86
2022-08-01T17:41:16.905Z,57.35
2022-08-01T17:43:43.491Z,56.42
2022-08-01T17:46:10.180Z,57.52
2022-08-01T17:48:36.736Z,58.26
2022-08-01T17:51:03.517Z,59.04
2022-08-01T17:53:30.052Z,58.04
2022-08-01T17:55:58.701Z,58.02
2022-08-01T17:58:50.086Z,58.20
2022-08-01T18:01:13.893Z,57.79
2022-08-01T18:03:41.497Z,58.47
2022-08-01T18:06:09.947Z,57.69
2022-08-01T18:08:36.568Z,58.79
2022-08-01T18:11:03.107Z,58.67
2022-08-01T18:13:31.071Z,59.68
2022-08-01T18:15:57.824Z,60.03
2022-08-01T18:18:33.363Z,59.99
2022-08-01T18:21:03.506Z,60.24
2022-08-01T18:23:30.135Z,59.68
2022-08-01T18:25:56.768Z,60.11
2022-08-01T18:28:31.636Z,60.58
2022-08-01T18:31:02.584Z,61.69
2022-08-01T18:33:29.528Z,61.80
2022-08-01T18:36:01.965Z,62.44
2022-08-01T18:38:33.562Z,62.81
2022-08-01T18:41:01.979Z,62.57
2022-08-01T18:43:29.296Z,62.58
2022-08-01T18:45:58.439Z,63.34
2022-08-01T18:48:25.202Z,63.91
2022-08-01T18:50:54.522Z,64.35
2022-08-01T18:53:27.166Z,64.26
2022-08-01T18:55:55.237Z,65.75
2022-08-01T18:58:22.385Z,65.88
2022-08-01T19:00:49.796Z,66.16
2022-08-01T19:03:17.276Z,66.60
2022-08-01T19:05:43.924Z,66.58
2022-08-01T19:08:17.472Z,65.70
2022-08-01T19:10:45.426Z,65.46
2022-08-01T19:13:11.987Z,66.16
2022-08-01T19:15:39.503Z,66.12
2022-08-01T19:18:10.923Z,66.91
2022-08-01T19:20:40.897Z,67.16
2022-08-01T19:23:26.379Z,66.75
2022-08-01T19:25:59.951Z,67.41
2022-08-01T19:28:28.175Z,67.79
2022-08-01T19:30:56.058Z,68.68
2022-08-01T19:33:25.222Z,69.07
2022-08-01T19:35:53.266Z,70.03
2022-08-01T19:38:21.402Z,71.56
2022-08-01T19:40:51.213Z,71.67
2022-08-01T19:43:21.927Z,72.00
2022-08-01T19:45:50.785Z,73.08
2022-08-01T19:48:23.944Z,73.56
2022-08-01T19:50:52.280Z,73.16
2022-08-01T19:53:24.567Z,73.62
2022-08-01T19:55:56.266Z,72.80
2022-08-01T19:58:27.524Z,73.25
2022-08-01T20:00:56.183Z,72.08
2022-08-01T20:03:24.017Z,72.63
2022-08-01T20:05:51.789Z,72.30
2022-08-01T20:08:24.875Z,73.17
2022-08-01T20:11:01.943Z,72.94
2022-08-01T20:13:40.356Z,73.05
2022-08-01T20:16:09.530Z,73.39
2022-08-01T20:18:36.477Z,74.48
2022-08-01T20:21:03.393Z,73.66
2022-08-01T20:23:33.868Z,72.95
2022-08-01T20:26:02.640Z,73.29
2022-08-01T20:28:29.357Z,72.09
2022-08-01T20:31:05.819Z,72.64
2022-08-01T20:33:34.435Z,73.37
2022-08-01T20:36:05.567Z,73.48
2022-08-01T20:38:40.397Z,74.15
2022-08-01T20:41:08.586Z,74.00
2022-08-01T20:43:37.686Z,74.10
2022-08-01T20:46:06.855Z,73.72
2022-08-01T20:48:35.679Z,74.44
2022-08-01T20:51:16.198Z,75.42
2022-08-01T20:53:50.921Z,75.63
2022-08-01T20:56:42.323Z,75.37
2022-08-01T20:59:40.122Z,75.45
2022-08-01T21:02:28.196Z,75.12
2022-08-01T21:05:06.320Z,75.71
2022-08-01T21:07:47.994Z,76.54
2022-08-01T21:10:18.781Z,77.17
2022-08-01T21:13:07.244Z,77.13
2022-08-01T21:15:38.819Z,78.25
2022-08-01T21:18:33.738Z,77.21
2022-08-01T21:21:03.226Z,77.13
2022-08-01T21:23:51.205Z,77.45
2022-08-01T21:26:24.951Z,77.04
2022-08-01T21:28:57.331Z,76.75
2022-08-01T21:31:27.531Z,76.42
2022-08-01T21:34:08.453Z,76.64
2022-08-01T21:36:37.401Z,76.92
2022-08-01T21:39:07.137Z,76.62
2022-08-01T21:41:56.742Z,76.46
2022-08-01T21:44:28.830Z,76.33
2022-08-01T21:47:00.746Z,76.84
2022-08-01T21:49:27.956Z,76.18
2022-08-01T21:52:01.098Z,76.52
2022-08-01T21:54:41.717Z,75.97
2022-08-01T21:57:50.710Z,76.45
2022-08-01T22:00:25.646Z,75.36
2022-08-01T22:03:24.709Z,75.54
2022-08-01T22:05:53.919Z,75.86
2022-08-01T22:08:45.586Z,75.86
2022-08-01T22:11:14.455Z,75.57
2022-08-01T22:13:42.110Z,75.98
2022-08-01T22:16:12.878Z,77.61
2022-08-01T22:18:48.573Z,77.61
2022-08-01T22:21:16.158Z,78.87
2022-08-01T22:23:43.626Z,77.03
2022-08-01T22:26:12.188Z,77.14
2022-08-01T22:28:40.423Z,77.55
2022-08-01T22:31:07.314Z,77.66
2022-08-01T22:33:38.426Z,77.21
2022-08-01T22:36:07.500Z,76.71
2022-08-01T22:38:34.433Z,76.70
2022-08-01T22:41:05.646Z,77.14
2022-08-01T22:43:41.265Z,76.57
2022-08-01T22:46:40.031Z,75.88
2022-08-01T22:49:17.704Z,75.42
2022-08-01T22:51:54.399Z,74.34
2022-08-01T22:54:29.549Z,72.43
2022-08-01T22:56:58.235Z,72.36
2022-08-01T22:59:42.892Z,72.71
2022-08-01T23:02:11.686Z,72.20
2022-08-01T23:04:44.117Z,73.19
2022-08-01T23:07:18.516Z,72.74
2022-08-01T23:09:53.712Z,72.60
2022-08-01T23:12:23.512Z,71.87
2022-08-01T23:14:53.017Z,72.75
2022-08-01T23:17:26.556Z,71.89
2022-08-01T23:20:04.479Z,71.59
2022-08-01T23:22:32.953Z,72.28
2022-08-01T23:25:06.303Z,71.42
2022-08-01T23:27:51.382Z,71.21
2022-08-01T23:30:28.605Z,70.92
2022-08-01T23:32:55.981Z,70.97
2022-08-01T23:35:22.735Z,70.34
2022-08-01T23:37:51.097Z,71.24
2022-08-01T23:40:20.375Z,71.75
2022-08-01T23:42:46.934Z,71.37
2022-08-01T23:45:15.384Z,71.19
2022-08-01T23:47:41.986Z,70.85
2022-08-01T23:50:12.151Z,71.19
2022-08-01T23:52:45.952Z,72.18
2022-08-01T23:55:16.118Z,71.91
2022-08-01T23:57:43.092Z,71.54
